<?xml version="1.0" encoding="utf-8"?>
<gpx xmlns:xsi="http://www.w3.org/2001/XMLSchema-instance" xmlns:xsd="http://www.w3.org/2001/XMLSchema" version="1.1" creator="Shapelink.com" xmlns="http://www.topografix.com/GPX/1/1" xmlns:gpxtpx="http://www.garmin.com/xmlschemas/TrackPointExtension/v1">
  <metadata>
    <name>Gåing 5.00 km, 2012-03-06</name>
    <desc></desc>
    <author><name>Mikael Blom</name></author> 
    <time>2012-03-06T12:55:52Z</time>
  </metadata>
  <trk>
    <name>Gåing 5.00 km, 2012-03-06</name>
    <trkseg>
      <trkpt lat="59.9785854" lon="17.7393549">
        <ele>37.6287</ele>
        <time>2012-03-06T12:55:52Z</time>
      </trkpt>
      <trkpt lat="59.9784719" lon="17.7394029">
        <ele>28.4962</ele>
        <time>2012-03-06T12:55:57Z</time>
      </trkpt>
      <trkpt lat="59.9784662" lon="17.7392776">
        <ele>51.5679</ele>
        <time>2012-03-06T12:56:03Z</time>
      </trkpt>
      <trkpt lat="59.9784197" lon="17.7393109">
        <ele>40.0321</ele>
        <time>2012-03-06T12:56:08Z</time>
      </trkpt>
      <trkpt lat="59.9783268" lon="17.7393308">
        <ele>34.2642</ele>
        <time>2012-03-06T12:56:13Z</time>
      </trkpt>
      <trkpt lat="59.9782606" lon="17.7393347">
        <ele>29.4575</ele>
        <time>2012-03-06T12:56:18Z</time>
      </trkpt>
      <trkpt lat="59.9782065" lon="17.7392341">
        <ele>45.3192</ele>
        <time>2012-03-06T12:56:26Z</time>
      </trkpt>
      <trkpt lat="59.9781502" lon="17.7392113">
        <ele>44.8386</ele>
        <time>2012-03-06T12:56:30Z</time>
      </trkpt>
      <trkpt lat="59.9780319" lon="17.7391714">
        <ele>43.8773</ele>
        <time>2012-03-06T12:56:37Z</time>
      </trkpt>
      <trkpt lat="59.9779492" lon="17.7391604">
        <ele>41.474</ele>
        <time>2012-03-06T12:56:41Z</time>
      </trkpt>
      <trkpt lat="59.9779224" lon="17.7390993">
        <ele>43.3966</ele>
        <time>2012-03-06T12:56:46Z</time>
      </trkpt>
      <trkpt lat="59.9778043" lon="17.7390666">
        <ele>40.9934</ele>
        <time>2012-03-06T12:56:52Z</time>
      </trkpt>
      <trkpt lat="59.9777116" lon="17.7390294">
        <ele>42.916</ele>
        <time>2012-03-06T12:56:58Z</time>
      </trkpt>
      <trkpt lat="59.9776488" lon="17.7390101">
        <ele>40.9934</ele>
        <time>2012-03-06T12:57:04Z</time>
      </trkpt>
      <trkpt lat="59.9776075" lon="17.7390005">
        <ele>39.5513</ele>
        <time>2012-03-06T12:57:09Z</time>
      </trkpt>
      <trkpt lat="59.9775433" lon="17.7390307">
        <ele>36.1868</ele>
        <time>2012-03-06T12:57:15Z</time>
      </trkpt>
      <trkpt lat="59.9774761" lon="17.7390787">
        <ele>34.2642</ele>
        <time>2012-03-06T12:57:21Z</time>
      </trkpt>
      <trkpt lat="59.9773908" lon="17.7391231">
        <ele>33.7834</ele>
        <time>2012-03-06T12:57:27Z</time>
      </trkpt>
      <trkpt lat="59.9772943" lon="17.7392045">
        <ele>33.3029</ele>
        <time>2012-03-06T12:57:33Z</time>
      </trkpt>
      <trkpt lat="59.9772701" lon="17.7392104">
        <ele>32.8223</ele>
        <time>2012-03-06T12:57:35Z</time>
      </trkpt>
      <trkpt lat="59.9772322" lon="17.7392155">
        <ele>30.8995</ele>
        <time>2012-03-06T12:57:39Z</time>
      </trkpt>
      <trkpt lat="59.9771334" lon="17.7392422">
        <ele>32.3416</ele>
        <time>2012-03-06T12:57:45Z</time>
      </trkpt>
      <trkpt lat="59.9770262" lon="17.7393026">
        <ele>33.3029</ele>
        <time>2012-03-06T12:57:52Z</time>
      </trkpt>
      <trkpt lat="59.9769277" lon="17.7393218">
        <ele>35.7061</ele>
        <time>2012-03-06T12:57:58Z</time>
      </trkpt>
      <trkpt lat="59.9768427" lon="17.7393575">
        <ele>35.2255</ele>
        <time>2012-03-06T12:58:04Z</time>
      </trkpt>
      <trkpt lat="59.9767243" lon="17.7393916">
        <ele>35.7061</ele>
        <time>2012-03-06T12:58:11Z</time>
      </trkpt>
      <trkpt lat="59.9767148" lon="17.7393977">
        <ele>34.7449</ele>
        <time>2012-03-06T12:58:12Z</time>
      </trkpt>
      <trkpt lat="59.9766766" lon="17.7394293">
        <ele>31.8607</ele>
        <time>2012-03-06T12:58:16Z</time>
      </trkpt>
      <trkpt lat="59.9765821" lon="17.7395108">
        <ele>30.4188</ele>
        <time>2012-03-06T12:58:23Z</time>
      </trkpt>
      <trkpt lat="59.9765266" lon="17.7395582">
        <ele>29.9381</ele>
        <time>2012-03-06T12:58:27Z</time>
      </trkpt>
      <trkpt lat="59.9764253" lon="17.7396831">
        <ele>30.4188</ele>
        <time>2012-03-06T12:58:35Z</time>
      </trkpt>
      <trkpt lat="59.9764034" lon="17.7397196">
        <ele>30.4188</ele>
        <time>2012-03-06T12:58:37Z</time>
      </trkpt>
      <trkpt lat="59.9763615" lon="17.7398416">
        <ele>29.4575</ele>
        <time>2012-03-06T12:58:42Z</time>
      </trkpt>
      <trkpt lat="59.9763201" lon="17.7400416">
        <ele>28.0155</ele>
        <time>2012-03-06T12:58:49Z</time>
      </trkpt>
      <trkpt lat="59.9762864" lon="17.7401561">
        <ele>28.9769</ele>
        <time>2012-03-06T12:58:54Z</time>
      </trkpt>
      <trkpt lat="59.9762528" lon="17.7402521">
        <ele>29.4575</ele>
        <time>2012-03-06T12:58:58Z</time>
      </trkpt>
      <trkpt lat="59.9762061" lon="17.7403469">
        <ele>28.9769</ele>
        <time>2012-03-06T12:59:02Z</time>
      </trkpt>
      <trkpt lat="59.9761669" lon="17.7404013">
        <ele>29.4575</ele>
        <time>2012-03-06T12:59:05Z</time>
      </trkpt>
      <trkpt lat="59.976122" lon="17.7405565">
        <ele>29.4575</ele>
        <time>2012-03-06T12:59:11Z</time>
      </trkpt>
      <trkpt lat="59.9761181" lon="17.7405851">
        <ele>29.4575</ele>
        <time>2012-03-06T12:59:12Z</time>
      </trkpt>
      <trkpt lat="59.9760637" lon="17.7407798">
        <ele>28.4962</ele>
        <time>2012-03-06T12:59:20Z</time>
      </trkpt>
      <trkpt lat="59.9760109" lon="17.7409346">
        <ele>28.4962</ele>
        <time>2012-03-06T12:59:26Z</time>
      </trkpt>
      <trkpt lat="59.9759664" lon="17.7411135">
        <ele>31.3801</ele>
        <time>2012-03-06T12:59:32Z</time>
      </trkpt>
      <trkpt lat="59.9759492" lon="17.7412719">
        <ele>30.8995</ele>
        <time>2012-03-06T12:59:38Z</time>
      </trkpt>
      <trkpt lat="59.975915" lon="17.7414093">
        <ele>30.4188</ele>
        <time>2012-03-06T12:59:44Z</time>
      </trkpt>
      <trkpt lat="59.9758394" lon="17.7416147">
        <ele>31.8607</ele>
        <time>2012-03-06T12:59:53Z</time>
      </trkpt>
      <trkpt lat="59.9757834" lon="17.7417929">
        <ele>33.3029</ele>
        <time>2012-03-06T13:00:00Z</time>
      </trkpt>
      <trkpt lat="59.9757482" lon="17.7419385">
        <ele>34.2642</ele>
        <time>2012-03-06T13:00:05Z</time>
      </trkpt>
      <trkpt lat="59.9757128" lon="17.7420766">
        <ele>35.2255</ele>
        <time>2012-03-06T13:00:10Z</time>
      </trkpt>
      <trkpt lat="59.9756901" lon="17.7421791">
        <ele>35.2255</ele>
        <time>2012-03-06T13:00:14Z</time>
      </trkpt>
      <trkpt lat="59.9756503" lon="17.7423204">
        <ele>34.7449</ele>
        <time>2012-03-06T13:00:19Z</time>
      </trkpt>
      <trkpt lat="59.9756004" lon="17.7424795">
        <ele>34.2642</ele>
        <time>2012-03-06T13:00:25Z</time>
      </trkpt>
      <trkpt lat="59.9755823" lon="17.7425352">
        <ele>33.7834</ele>
        <time>2012-03-06T13:00:27Z</time>
      </trkpt>
      <trkpt lat="59.9755582" lon="17.7426737">
        <ele>31.8607</ele>
        <time>2012-03-06T13:00:32Z</time>
      </trkpt>
      <trkpt lat="59.9755193" lon="17.7427648">
        <ele>31.3801</ele>
        <time>2012-03-06T13:00:36Z</time>
      </trkpt>
      <trkpt lat="59.9754887" lon="17.7428675">
        <ele>31.8607</ele>
        <time>2012-03-06T13:00:40Z</time>
      </trkpt>
      <trkpt lat="59.9754468" lon="17.7430368">
        <ele>32.3416</ele>
        <time>2012-03-06T13:00:46Z</time>
      </trkpt>
      <trkpt lat="59.9753888" lon="17.7432201">
        <ele>33.3029</ele>
        <time>2012-03-06T13:00:53Z</time>
      </trkpt>
      <trkpt lat="59.9753466" lon="17.74332">
        <ele>33.3029</ele>
        <time>2012-03-06T13:00:57Z</time>
      </trkpt>
      <trkpt lat="59.9753141" lon="17.7435429">
        <ele>33.3029</ele>
        <time>2012-03-06T13:01:05Z</time>
      </trkpt>
      <trkpt lat="59.9752849" lon="17.7437116">
        <ele>32.8223</ele>
        <time>2012-03-06T13:01:11Z</time>
      </trkpt>
      <trkpt lat="59.9752682" lon="17.7438596">
        <ele>32.3416</ele>
        <time>2012-03-06T13:01:16Z</time>
      </trkpt>
      <trkpt lat="59.9752385" lon="17.7440066">
        <ele>32.8223</ele>
        <time>2012-03-06T13:01:21Z</time>
      </trkpt>
      <trkpt lat="59.9752215" lon="17.7441231">
        <ele>33.3029</ele>
        <time>2012-03-06T13:01:25Z</time>
      </trkpt>
      <trkpt lat="59.9751865" lon="17.7442441">
        <ele>32.8223</ele>
        <time>2012-03-06T13:01:30Z</time>
      </trkpt>
      <trkpt lat="59.9751597" lon="17.7443624">
        <ele>33.3029</ele>
        <time>2012-03-06T13:01:34Z</time>
      </trkpt>
      <trkpt lat="59.9751075" lon="17.7446012">
        <ele>33.3029</ele>
        <time>2012-03-06T13:01:42Z</time>
      </trkpt>
      <trkpt lat="59.9750534" lon="17.7448168">
        <ele>35.2255</ele>
        <time>2012-03-06T13:01:47Z</time>
      </trkpt>
      <trkpt lat="59.9750353" lon="17.7449027">
        <ele>32.8223</ele>
        <time>2012-03-06T13:01:52Z</time>
      </trkpt>
      <trkpt lat="59.9750059" lon="17.7450182">
        <ele>32.8223</ele>
        <time>2012-03-06T13:01:58Z</time>
      </trkpt>
      <trkpt lat="59.9749671" lon="17.745154">
        <ele>33.3029</ele>
        <time>2012-03-06T13:02:04Z</time>
      </trkpt>
      <trkpt lat="59.9749076" lon="17.7453124">
        <ele>33.7834</ele>
        <time>2012-03-06T13:02:10Z</time>
      </trkpt>
      <trkpt lat="59.9748703" lon="17.7454243">
        <ele>34.7449</ele>
        <time>2012-03-06T13:02:15Z</time>
      </trkpt>
      <trkpt lat="59.9748245" lon="17.745544">
        <ele>34.7449</ele>
        <time>2012-03-06T13:02:20Z</time>
      </trkpt>
      <trkpt lat="59.9747669" lon="17.7456838">
        <ele>34.7449</ele>
        <time>2012-03-06T13:02:26Z</time>
      </trkpt>
      <trkpt lat="59.9747289" lon="17.7457783">
        <ele>34.2642</ele>
        <time>2012-03-06T13:02:30Z</time>
      </trkpt>
      <trkpt lat="59.9746759" lon="17.745875">
        <ele>34.2642</ele>
        <time>2012-03-06T13:02:35Z</time>
      </trkpt>
      <trkpt lat="59.9746644" lon="17.7458889">
        <ele>33.7834</ele>
        <time>2012-03-06T13:02:36Z</time>
      </trkpt>
      <trkpt lat="59.9745899" lon="17.7460155">
        <ele>36.1868</ele>
        <time>2012-03-06T13:02:43Z</time>
      </trkpt>
      <trkpt lat="59.9745206" lon="17.7461449">
        <ele>37.6287</ele>
        <time>2012-03-06T13:02:49Z</time>
      </trkpt>
      <trkpt lat="59.9744511" lon="17.7462832">
        <ele>36.6675</ele>
        <time>2012-03-06T13:02:55Z</time>
      </trkpt>
      <trkpt lat="59.9743563" lon="17.7464535">
        <ele>35.7061</ele>
        <time>2012-03-06T13:03:04Z</time>
      </trkpt>
      <trkpt lat="59.9742775" lon="17.7465926">
        <ele>34.7449</ele>
        <time>2012-03-06T13:03:11Z</time>
      </trkpt>
      <trkpt lat="59.9742227" lon="17.7466542">
        <ele>34.7449</ele>
        <time>2012-03-06T13:03:15Z</time>
      </trkpt>
      <trkpt lat="59.974202" lon="17.7467023">
        <ele>35.2255</ele>
        <time>2012-03-06T13:03:17Z</time>
      </trkpt>
      <trkpt lat="59.9741192" lon="17.7468298">
        <ele>33.7834</ele>
        <time>2012-03-06T13:03:24Z</time>
      </trkpt>
      <trkpt lat="59.973974" lon="17.7469676">
        <ele>32.3416</ele>
        <time>2012-03-06T13:03:35Z</time>
      </trkpt>
      <trkpt lat="59.9738887" lon="17.7470588">
        <ele>31.8607</ele>
        <time>2012-03-06T13:03:42Z</time>
      </trkpt>
      <trkpt lat="59.9737882" lon="17.7471555">
        <ele>32.3416</ele>
        <time>2012-03-06T13:03:49Z</time>
      </trkpt>
      <trkpt lat="59.9737643" lon="17.7471893">
        <ele>33.3029</ele>
        <time>2012-03-06T13:03:51Z</time>
      </trkpt>
      <trkpt lat="59.9736467" lon="17.7473187">
        <ele>32.8223</ele>
        <time>2012-03-06T13:04:00Z</time>
      </trkpt>
      <trkpt lat="59.9736326" lon="17.7473338">
        <ele>32.8223</ele>
        <time>2012-03-06T13:04:01Z</time>
      </trkpt>
      <trkpt lat="59.9735705" lon="17.7474112">
        <ele>32.8223</ele>
        <time>2012-03-06T13:04:06Z</time>
      </trkpt>
      <trkpt lat="59.9735128" lon="17.7474799">
        <ele>33.3029</ele>
        <time>2012-03-06T13:04:10Z</time>
      </trkpt>
      <trkpt lat="59.973418" lon="17.7475905">
        <ele>34.2642</ele>
        <time>2012-03-06T13:04:17Z</time>
      </trkpt>
      <trkpt lat="59.9733882" lon="17.7476413">
        <ele>33.7834</ele>
        <time>2012-03-06T13:04:20Z</time>
      </trkpt>
      <trkpt lat="59.9732938" lon="17.7477632">
        <ele>33.3029</ele>
        <time>2012-03-06T13:04:28Z</time>
      </trkpt>
      <trkpt lat="59.9732308" lon="17.7478532">
        <ele>34.2642</ele>
        <time>2012-03-06T13:04:34Z</time>
      </trkpt>
      <trkpt lat="59.9731834" lon="17.7479134">
        <ele>34.2642</ele>
        <time>2012-03-06T13:04:38Z</time>
      </trkpt>
      <trkpt lat="59.9731079" lon="17.7480097">
        <ele>34.7449</ele>
        <time>2012-03-06T13:04:44Z</time>
      </trkpt>
      <trkpt lat="59.9730686" lon="17.7480605">
        <ele>33.3029</ele>
        <time>2012-03-06T13:04:47Z</time>
      </trkpt>
      <trkpt lat="59.9729757" lon="17.7481732">
        <ele>32.3416</ele>
        <time>2012-03-06T13:04:54Z</time>
      </trkpt>
      <trkpt lat="59.9728778" lon="17.7483307">
        <ele>32.8223</ele>
        <time>2012-03-06T13:05:02Z</time>
      </trkpt>
      <trkpt lat="59.9728324" lon="17.7484517">
        <ele>31.8607</ele>
        <time>2012-03-06T13:05:07Z</time>
      </trkpt>
      <trkpt lat="59.9727449" lon="17.7485576">
        <ele>31.8607</ele>
        <time>2012-03-06T13:05:13Z</time>
      </trkpt>
      <trkpt lat="59.9726711" lon="17.7486459">
        <ele>32.8223</ele>
        <time>2012-03-06T13:05:19Z</time>
      </trkpt>
      <trkpt lat="59.9726351" lon="17.7487609">
        <ele>32.8223</ele>
        <time>2012-03-06T13:05:23Z</time>
      </trkpt>
      <trkpt lat="59.9725837" lon="17.7488948">
        <ele>31.8607</ele>
        <time>2012-03-06T13:05:29Z</time>
      </trkpt>
      <trkpt lat="59.9725428" lon="17.7489753">
        <ele>32.3416</ele>
        <time>2012-03-06T13:05:33Z</time>
      </trkpt>
      <trkpt lat="59.9724978" lon="17.749092">
        <ele>33.7834</ele>
        <time>2012-03-06T13:05:39Z</time>
      </trkpt>
      <trkpt lat="59.9724599" lon="17.749168">
        <ele>34.7449</ele>
        <time>2012-03-06T13:05:43Z</time>
      </trkpt>
      <trkpt lat="59.9724429" lon="17.7492193">
        <ele>33.7834</ele>
        <time>2012-03-06T13:05:45Z</time>
      </trkpt>
      <trkpt lat="59.9723631" lon="17.749358">
        <ele>35.2255</ele>
        <time>2012-03-06T13:05:52Z</time>
      </trkpt>
      <trkpt lat="59.9722807" lon="17.7495133">
        <ele>37.1481</ele>
        <time>2012-03-06T13:05:59Z</time>
      </trkpt>
      <trkpt lat="59.9722008" lon="17.749685">
        <ele>37.1481</ele>
        <time>2012-03-06T13:06:07Z</time>
      </trkpt>
      <trkpt lat="59.9721515" lon="17.7497953">
        <ele>36.6675</ele>
        <time>2012-03-06T13:06:12Z</time>
      </trkpt>
      <trkpt lat="59.9720901" lon="17.7499092">
        <ele>37.1481</ele>
        <time>2012-03-06T13:06:17Z</time>
      </trkpt>
      <trkpt lat="59.9720056" lon="17.7500808">
        <ele>37.6287</ele>
        <time>2012-03-06T13:06:25Z</time>
      </trkpt>
      <trkpt lat="59.9719277" lon="17.7502512">
        <ele>38.1094</ele>
        <time>2012-03-06T13:06:32Z</time>
      </trkpt>
      <trkpt lat="59.9718839" lon="17.7503428">
        <ele>37.6287</ele>
        <time>2012-03-06T13:06:36Z</time>
      </trkpt>
      <trkpt lat="59.9718158" lon="17.7504988">
        <ele>37.6287</ele>
        <time>2012-03-06T13:06:43Z</time>
      </trkpt>
      <trkpt lat="59.9717653" lon="17.7505776">
        <ele>37.6287</ele>
        <time>2012-03-06T13:06:48Z</time>
      </trkpt>
      <trkpt lat="59.9716715" lon="17.750722">
        <ele>38.1094</ele>
        <time>2012-03-06T13:06:56Z</time>
      </trkpt>
      <trkpt lat="59.9715858" lon="17.7508757">
        <ele>37.6287</ele>
        <time>2012-03-06T13:07:03Z</time>
      </trkpt>
      <trkpt lat="59.9714994" lon="17.7510477">
        <ele>33.3029</ele>
        <time>2012-03-06T13:07:11Z</time>
      </trkpt>
      <trkpt lat="59.9713953" lon="17.751168">
        <ele>34.2642</ele>
        <time>2012-03-06T13:07:18Z</time>
      </trkpt>
      <trkpt lat="59.9713793" lon="17.7511841">
        <ele>34.2642</ele>
        <time>2012-03-06T13:07:19Z</time>
      </trkpt>
      <trkpt lat="59.9713035" lon="17.751235">
        <ele>34.7449</ele>
        <time>2012-03-06T13:07:24Z</time>
      </trkpt>
      <trkpt lat="59.9711835" lon="17.7513747">
        <ele>32.3416</ele>
        <time>2012-03-06T13:07:32Z</time>
      </trkpt>
      <trkpt lat="59.9711579" lon="17.7513991">
        <ele>31.8607</ele>
        <time>2012-03-06T13:07:34Z</time>
      </trkpt>
      <trkpt lat="59.9710721" lon="17.7515289">
        <ele>30.4188</ele>
        <time>2012-03-06T13:07:41Z</time>
      </trkpt>
      <trkpt lat="59.9709941" lon="17.7516377">
        <ele>28.9769</ele>
        <time>2012-03-06T13:07:48Z</time>
      </trkpt>
      <trkpt lat="59.9709218" lon="17.7517522">
        <ele>28.4962</ele>
        <time>2012-03-06T13:07:54Z</time>
      </trkpt>
      <trkpt lat="59.9708556" lon="17.7518906">
        <ele>26.5736</ele>
        <time>2012-03-06T13:08:01Z</time>
      </trkpt>
      <trkpt lat="59.97078" lon="17.7520347">
        <ele>26.5736</ele>
        <time>2012-03-06T13:08:07Z</time>
      </trkpt>
      <trkpt lat="59.9707694" lon="17.7520518">
        <ele>26.5736</ele>
        <time>2012-03-06T13:08:08Z</time>
      </trkpt>
      <trkpt lat="59.9707361" lon="17.7521746">
        <ele>26.0929</ele>
        <time>2012-03-06T13:08:13Z</time>
      </trkpt>
      <trkpt lat="59.9706957" lon="17.7522337">
        <ele>27.0543</ele>
        <time>2012-03-06T13:08:16Z</time>
      </trkpt>
      <trkpt lat="59.9706126" lon="17.7523802">
        <ele>28.9769</ele>
        <time>2012-03-06T13:08:23Z</time>
      </trkpt>
      <trkpt lat="59.9705541" lon="17.7524987">
        <ele>30.4188</ele>
        <time>2012-03-06T13:08:28Z</time>
      </trkpt>
      <trkpt lat="59.9704779" lon="17.7527393">
        <ele>29.4575</ele>
        <time>2012-03-06T13:08:37Z</time>
      </trkpt>
      <trkpt lat="59.970417" lon="17.7529137">
        <ele>28.9769</ele>
        <time>2012-03-06T13:08:44Z</time>
      </trkpt>
      <trkpt lat="59.9703733" lon="17.7530608">
        <ele>27.5349</ele>
        <time>2012-03-06T13:08:50Z</time>
      </trkpt>
      <trkpt lat="59.9702993" lon="17.7532601">
        <ele>27.0543</ele>
        <time>2012-03-06T13:08:58Z</time>
      </trkpt>
      <trkpt lat="59.9702283" lon="17.7534424">
        <ele>27.0543</ele>
        <time>2012-03-06T13:09:05Z</time>
      </trkpt>
      <trkpt lat="59.9701447" lon="17.7536054">
        <ele>29.4575</ele>
        <time>2012-03-06T13:09:12Z</time>
      </trkpt>
      <trkpt lat="59.9700635" lon="17.7537694">
        <ele>28.4962</ele>
        <time>2012-03-06T13:09:19Z</time>
      </trkpt>
      <trkpt lat="59.9700161" lon="17.7538625">
        <ele>27.5349</ele>
        <time>2012-03-06T13:09:23Z</time>
      </trkpt>
      <trkpt lat="59.9699275" lon="17.7540462">
        <ele>27.5349</ele>
        <time>2012-03-06T13:09:31Z</time>
      </trkpt>
      <trkpt lat="59.969851" lon="17.7542024">
        <ele>26.0929</ele>
        <time>2012-03-06T13:09:38Z</time>
      </trkpt>
      <trkpt lat="59.9697968" lon="17.7543325">
        <ele>24.651</ele>
        <time>2012-03-06T13:09:43Z</time>
      </trkpt>
      <trkpt lat="59.9697433" lon="17.7545025">
        <ele>22.7283</ele>
        <time>2012-03-06T13:09:49Z</time>
      </trkpt>
      <trkpt lat="59.9696921" lon="17.754625">
        <ele>23.209</ele>
        <time>2012-03-06T13:09:54Z</time>
      </trkpt>
      <trkpt lat="59.9696379" lon="17.7547256">
        <ele>24.1703</ele>
        <time>2012-03-06T13:09:59Z</time>
      </trkpt>
      <trkpt lat="59.9695632" lon="17.7548641">
        <ele>25.1317</ele>
        <time>2012-03-06T13:10:05Z</time>
      </trkpt>
      <trkpt lat="59.9694616" lon="17.7550341">
        <ele>27.0543</ele>
        <time>2012-03-06T13:10:13Z</time>
      </trkpt>
      <trkpt lat="59.969441" lon="17.7550702">
        <ele>26.5736</ele>
        <time>2012-03-06T13:10:15Z</time>
      </trkpt>
      <trkpt lat="59.9693741" lon="17.7552353">
        <ele>24.651</ele>
        <time>2012-03-06T13:10:23Z</time>
      </trkpt>
      <trkpt lat="59.9692939" lon="17.7554297">
        <ele>23.209</ele>
        <time>2012-03-06T13:10:31Z</time>
      </trkpt>
      <trkpt lat="59.969197" lon="17.7556088">
        <ele>25.1317</ele>
        <time>2012-03-06T13:10:39Z</time>
      </trkpt>
      <trkpt lat="59.9690927" lon="17.7557852">
        <ele>25.6123</ele>
        <time>2012-03-06T13:10:48Z</time>
      </trkpt>
      <trkpt lat="59.9690172" lon="17.7559199">
        <ele>25.6123</ele>
        <time>2012-03-06T13:10:55Z</time>
      </trkpt>
      <trkpt lat="59.968997" lon="17.7559185">
        <ele>24.651</ele>
        <time>2012-03-06T13:10:57Z</time>
      </trkpt>
      <trkpt lat="59.9690032" lon="17.7558219">
        <ele>23.6896</ele>
        <time>2012-03-06T13:11:00Z</time>
      </trkpt>
      <trkpt lat="59.9690348" lon="17.7557434">
        <ele>22.7283</ele>
        <time>2012-03-06T13:11:03Z</time>
      </trkpt>
      <trkpt lat="59.969128" lon="17.7555432">
        <ele>22.2476</ele>
        <time>2012-03-06T13:11:12Z</time>
      </trkpt>
      <trkpt lat="59.9692115" lon="17.7553634">
        <ele>22.2476</ele>
        <time>2012-03-06T13:11:20Z</time>
      </trkpt>
      <trkpt lat="59.9692788" lon="17.7552102">
        <ele>23.209</ele>
        <time>2012-03-06T13:11:27Z</time>
      </trkpt>
      <trkpt lat="59.9693721" lon="17.7550412">
        <ele>22.7283</ele>
        <time>2012-03-06T13:11:35Z</time>
      </trkpt>
      <trkpt lat="59.9694373" lon="17.754881">
        <ele>24.1703</ele>
        <time>2012-03-06T13:11:42Z</time>
      </trkpt>
      <trkpt lat="59.9695264" lon="17.7547127">
        <ele>23.6896</ele>
        <time>2012-03-06T13:11:50Z</time>
      </trkpt>
      <trkpt lat="59.9695817" lon="17.7546065">
        <ele>23.209</ele>
        <time>2012-03-06T13:11:55Z</time>
      </trkpt>
      <trkpt lat="59.9696638" lon="17.7544388">
        <ele>22.2476</ele>
        <time>2012-03-06T13:12:03Z</time>
      </trkpt>
      <trkpt lat="59.9697295" lon="17.7543107">
        <ele>22.2476</ele>
        <time>2012-03-06T13:12:09Z</time>
      </trkpt>
      <trkpt lat="59.9697647" lon="17.75422">
        <ele>22.7283</ele>
        <time>2012-03-06T13:12:13Z</time>
      </trkpt>
      <trkpt lat="59.9698321" lon="17.7540564">
        <ele>23.6896</ele>
        <time>2012-03-06T13:12:20Z</time>
      </trkpt>
      <trkpt lat="59.96987" lon="17.7539891">
        <ele>23.209</ele>
        <time>2012-03-06T13:12:23Z</time>
      </trkpt>
      <trkpt lat="59.9699719" lon="17.7537809">
        <ele>23.209</ele>
        <time>2012-03-06T13:12:32Z</time>
      </trkpt>
      <trkpt lat="59.9700528" lon="17.7535916">
        <ele>22.2476</ele>
        <time>2012-03-06T13:12:40Z</time>
      </trkpt>
      <trkpt lat="59.9700803" lon="17.753523">
        <ele>21.2864</ele>
        <time>2012-03-06T13:12:43Z</time>
      </trkpt>
      <trkpt lat="59.9701328" lon="17.7534557">
        <ele>20.8057</ele>
        <time>2012-03-06T13:12:47Z</time>
      </trkpt>
      <trkpt lat="59.970204" lon="17.7532233">
        <ele>19.3638</ele>
        <time>2012-03-06T13:12:56Z</time>
      </trkpt>
      <trkpt lat="59.9702992" lon="17.7529846">
        <ele>18.4023</ele>
        <time>2012-03-06T13:13:06Z</time>
      </trkpt>
      <trkpt lat="59.9703791" lon="17.752752">
        <ele>18.4023</ele>
        <time>2012-03-06T13:13:15Z</time>
      </trkpt>
      <trkpt lat="59.9704384" lon="17.7526169">
        <ele>16.4797</ele>
        <time>2012-03-06T13:13:21Z</time>
      </trkpt>
      <trkpt lat="59.9705185" lon="17.7523885">
        <ele>17.4412</ele>
        <time>2012-03-06T13:13:30Z</time>
      </trkpt>
      <trkpt lat="59.9706214" lon="17.7521745">
        <ele>19.3638</ele>
        <time>2012-03-06T13:13:39Z</time>
      </trkpt>
      <trkpt lat="59.9706991" lon="17.7520658">
        <ele>19.3638</ele>
        <time>2012-03-06T13:13:45Z</time>
      </trkpt>
      <trkpt lat="59.9707691" lon="17.7519192">
        <ele>17.9218</ele>
        <time>2012-03-06T13:13:52Z</time>
      </trkpt>
      <trkpt lat="59.9708363" lon="17.7518009">
        <ele>17.9218</ele>
        <time>2012-03-06T13:13:58Z</time>
      </trkpt>
      <trkpt lat="59.9709122" lon="17.7516939">
        <ele>19.3638</ele>
        <time>2012-03-06T13:14:04Z</time>
      </trkpt>
      <trkpt lat="59.9710209" lon="17.7515545">
        <ele>20.8057</ele>
        <time>2012-03-06T13:14:12Z</time>
      </trkpt>
      <trkpt lat="59.9711233" lon="17.7514277">
        <ele>21.2864</ele>
        <time>2012-03-06T13:14:19Z</time>
      </trkpt>
      <trkpt lat="59.9712338" lon="17.7513069">
        <ele>21.767</ele>
        <time>2012-03-06T13:14:27Z</time>
      </trkpt>
      <trkpt lat="59.9713455" lon="17.7511887">
        <ele>21.767</ele>
        <time>2012-03-06T13:14:35Z</time>
      </trkpt>
      <trkpt lat="59.9714146" lon="17.7510676">
        <ele>22.2476</ele>
        <time>2012-03-06T13:14:41Z</time>
      </trkpt>
      <trkpt lat="59.9714943" lon="17.7509551">
        <ele>23.209</ele>
        <time>2012-03-06T13:14:47Z</time>
      </trkpt>
      <trkpt lat="59.9715771" lon="17.7508143">
        <ele>22.7283</ele>
        <time>2012-03-06T13:14:54Z</time>
      </trkpt>
      <trkpt lat="59.9716192" lon="17.7506871">
        <ele>23.209</ele>
        <time>2012-03-06T13:14:59Z</time>
      </trkpt>
      <trkpt lat="59.9717239" lon="17.7505509">
        <ele>23.6896</ele>
        <time>2012-03-06T13:15:07Z</time>
      </trkpt>
      <trkpt lat="59.971815" lon="17.7503505">
        <ele>24.651</ele>
        <time>2012-03-06T13:15:16Z</time>
      </trkpt>
      <trkpt lat="59.9718848" lon="17.7501718">
        <ele>27.0543</ele>
        <time>2012-03-06T13:15:24Z</time>
      </trkpt>
      <trkpt lat="59.9719517" lon="17.7500273">
        <ele>29.9381</ele>
        <time>2012-03-06T13:15:30Z</time>
      </trkpt>
      <trkpt lat="59.972023" lon="17.7498793">
        <ele>28.4962</ele>
        <time>2012-03-06T13:15:37Z</time>
      </trkpt>
      <trkpt lat="59.9720997" lon="17.749739">
        <ele>28.0155</ele>
        <time>2012-03-06T13:15:44Z</time>
      </trkpt>
      <trkpt lat="59.9721784" lon="17.7495483">
        <ele>29.4575</ele>
        <time>2012-03-06T13:15:51Z</time>
      </trkpt>
      <trkpt lat="59.9721847" lon="17.7495089">
        <ele>28.4962</ele>
        <time>2012-03-06T13:15:52Z</time>
      </trkpt>
      <trkpt lat="59.9722811" lon="17.7493276">
        <ele>31.3801</ele>
        <time>2012-03-06T13:16:00Z</time>
      </trkpt>
      <trkpt lat="59.9723088" lon="17.7492453">
        <ele>31.3801</ele>
        <time>2012-03-06T13:16:03Z</time>
      </trkpt>
      <trkpt lat="59.9723807" lon="17.749083">
        <ele>29.9381</ele>
        <time>2012-03-06T13:16:10Z</time>
      </trkpt>
      <trkpt lat="59.9724662" lon="17.7489319">
        <ele>30.8995</ele>
        <time>2012-03-06T13:16:17Z</time>
      </trkpt>
      <trkpt lat="59.9725646" lon="17.7487696">
        <ele>30.8995</ele>
        <time>2012-03-06T13:16:25Z</time>
      </trkpt>
      <trkpt lat="59.9726334" lon="17.7486401">
        <ele>30.4188</ele>
        <time>2012-03-06T13:16:31Z</time>
      </trkpt>
      <trkpt lat="59.9726802" lon="17.748518">
        <ele>31.3801</ele>
        <time>2012-03-06T13:16:36Z</time>
      </trkpt>
      <trkpt lat="59.9727448" lon="17.7483336">
        <ele>30.8995</ele>
        <time>2012-03-06T13:16:43Z</time>
      </trkpt>
      <trkpt lat="59.972825" lon="17.7481127">
        <ele>30.4188</ele>
        <time>2012-03-06T13:16:51Z</time>
      </trkpt>
      <trkpt lat="59.9729122" lon="17.7479585">
        <ele>29.4575</ele>
        <time>2012-03-06T13:16:59Z</time>
      </trkpt>
      <trkpt lat="59.9729929" lon="17.7478417">
        <ele>28.9769</ele>
        <time>2012-03-06T13:17:06Z</time>
      </trkpt>
      <trkpt lat="59.973098" lon="17.7477485">
        <ele>28.9769</ele>
        <time>2012-03-06T13:17:13Z</time>
      </trkpt>
      <trkpt lat="59.9731914" lon="17.7476409">
        <ele>27.0543</ele>
        <time>2012-03-06T13:17:20Z</time>
      </trkpt>
      <trkpt lat="59.9732626" lon="17.7475626">
        <ele>27.5349</ele>
        <time>2012-03-06T13:17:25Z</time>
      </trkpt>
      <trkpt lat="59.9733555" lon="17.7474716">
        <ele>25.6123</ele>
        <time>2012-03-06T13:17:32Z</time>
      </trkpt>
      <trkpt lat="59.9734554" lon="17.7473849">
        <ele>27.0543</ele>
        <time>2012-03-06T13:17:39Z</time>
      </trkpt>
      <trkpt lat="59.9735434" lon="17.7473141">
        <ele>27.5349</ele>
        <time>2012-03-06T13:17:45Z</time>
      </trkpt>
      <trkpt lat="59.9736307" lon="17.747242">
        <ele>28.9769</ele>
        <time>2012-03-06T13:17:51Z</time>
      </trkpt>
      <trkpt lat="59.9737228" lon="17.7470954">
        <ele>28.4962</ele>
        <time>2012-03-06T13:17:59Z</time>
      </trkpt>
      <trkpt lat="59.9737765" lon="17.7470416">
        <ele>28.0155</ele>
        <time>2012-03-06T13:18:03Z</time>
      </trkpt>
      <trkpt lat="59.9738559" lon="17.7469468">
        <ele>28.0155</ele>
        <time>2012-03-06T13:18:09Z</time>
      </trkpt>
      <trkpt lat="59.9739171" lon="17.7468499">
        <ele>27.5349</ele>
        <time>2012-03-06T13:18:14Z</time>
      </trkpt>
      <trkpt lat="59.9740062" lon="17.7467312">
        <ele>28.4962</ele>
        <time>2012-03-06T13:18:21Z</time>
      </trkpt>
      <trkpt lat="59.9740704" lon="17.7466494">
        <ele>28.0155</ele>
        <time>2012-03-06T13:18:26Z</time>
      </trkpt>
      <trkpt lat="59.9741915" lon="17.7465044">
        <ele>27.0543</ele>
        <time>2012-03-06T13:18:35Z</time>
      </trkpt>
      <trkpt lat="59.9742546" lon="17.7464183">
        <ele>27.5349</ele>
        <time>2012-03-06T13:18:40Z</time>
      </trkpt>
      <trkpt lat="59.9743417" lon="17.7463158">
        <ele>27.0543</ele>
        <time>2012-03-06T13:18:47Z</time>
      </trkpt>
      <trkpt lat="59.9744486" lon="17.7461874">
        <ele>26.0929</ele>
        <time>2012-03-06T13:18:55Z</time>
      </trkpt>
      <trkpt lat="59.9745433" lon="17.7460497">
        <ele>24.651</ele>
        <time>2012-03-06T13:19:03Z</time>
      </trkpt>
      <trkpt lat="59.9746383" lon="17.7458755">
        <ele>24.651</ele>
        <time>2012-03-06T13:19:12Z</time>
      </trkpt>
      <trkpt lat="59.9747268" lon="17.7456977">
        <ele>24.651</ele>
        <time>2012-03-06T13:19:20Z</time>
      </trkpt>
      <trkpt lat="59.9747981" lon="17.7455374">
        <ele>27.0543</ele>
        <time>2012-03-06T13:19:27Z</time>
      </trkpt>
      <trkpt lat="59.9748744" lon="17.7453716">
        <ele>25.6123</ele>
        <time>2012-03-06T13:19:34Z</time>
      </trkpt>
      <trkpt lat="59.974935" lon="17.7452046">
        <ele>23.6896</ele>
        <time>2012-03-06T13:19:40Z</time>
      </trkpt>
      <trkpt lat="59.9749981" lon="17.744957">
        <ele>24.651</ele>
        <time>2012-03-06T13:19:49Z</time>
      </trkpt>
      <trkpt lat="59.9750847" lon="17.7446259">
        <ele>27.5349</ele>
        <time>2012-03-06T13:20:01Z</time>
      </trkpt>
      <trkpt lat="59.9751764" lon="17.744266">
        <ele>29.4575</ele>
        <time>2012-03-06T13:20:14Z</time>
      </trkpt>
      <trkpt lat="59.9752397" lon="17.7439457">
        <ele>29.4575</ele>
        <time>2012-03-06T13:20:25Z</time>
      </trkpt>
      <trkpt lat="59.9753084" lon="17.7435505">
        <ele>28.4962</ele>
        <time>2012-03-06T13:20:39Z</time>
      </trkpt>
      <trkpt lat="59.9753531" lon="17.743299">
        <ele>28.0155</ele>
        <time>2012-03-06T13:20:48Z</time>
      </trkpt>
      <trkpt lat="59.9754075" lon="17.743111">
        <ele>27.5349</ele>
        <time>2012-03-06T13:20:55Z</time>
      </trkpt>
      <trkpt lat="59.9754603" lon="17.7428864">
        <ele>26.0929</ele>
        <time>2012-03-06T13:21:03Z</time>
      </trkpt>
      <trkpt lat="59.9754733" lon="17.7428327">
        <ele>25.6123</ele>
        <time>2012-03-06T13:21:05Z</time>
      </trkpt>
      <trkpt lat="59.9755538" lon="17.7426166">
        <ele>25.1317</ele>
        <time>2012-03-06T13:21:12Z</time>
      </trkpt>
      <trkpt lat="59.9755969" lon="17.7424448">
        <ele>25.6123</ele>
        <time>2012-03-06T13:21:18Z</time>
      </trkpt>
      <trkpt lat="59.9756686" lon="17.7421618">
        <ele>24.1703</ele>
        <time>2012-03-06T13:21:28Z</time>
      </trkpt>
      <trkpt lat="59.9757229" lon="17.7419365">
        <ele>23.6896</ele>
        <time>2012-03-06T13:21:36Z</time>
      </trkpt>
      <trkpt lat="59.9757796" lon="17.7417206">
        <ele>21.2864</ele>
        <time>2012-03-06T13:21:44Z</time>
      </trkpt>
      <trkpt lat="59.9758517" lon="17.7414655">
        <ele>20.325</ele>
        <time>2012-03-06T13:21:53Z</time>
      </trkpt>
      <trkpt lat="59.9758981" lon="17.741272">
        <ele>21.2864</ele>
        <time>2012-03-06T13:22:00Z</time>
      </trkpt>
      <trkpt lat="59.9759497" lon="17.7411285">
        <ele>19.3638</ele>
        <time>2012-03-06T13:22:05Z</time>
      </trkpt>
      <trkpt lat="59.975985" lon="17.7409487">
        <ele>18.8831</ele>
        <time>2012-03-06T13:22:12Z</time>
      </trkpt>
      <trkpt lat="59.9760285" lon="17.7407265">
        <ele>22.2476</ele>
        <time>2012-03-06T13:22:20Z</time>
      </trkpt>
      <trkpt lat="59.9760803" lon="17.7405227">
        <ele>26.0929</ele>
        <time>2012-03-06T13:22:28Z</time>
      </trkpt>
      <trkpt lat="59.9761392" lon="17.7403085">
        <ele>27.0543</ele>
        <time>2012-03-06T13:22:36Z</time>
      </trkpt>
      <trkpt lat="59.976174" lon="17.7401458">
        <ele>28.4962</ele>
        <time>2012-03-06T13:22:42Z</time>
      </trkpt>
      <trkpt lat="59.9762244" lon="17.7399188">
        <ele>28.4962</ele>
        <time>2012-03-06T13:22:50Z</time>
      </trkpt>
      <trkpt lat="59.9761849" lon="17.7397868">
        <ele>30.4188</ele>
        <time>2012-03-06T13:22:55Z</time>
      </trkpt>
      <trkpt lat="59.976071" lon="17.7396236">
        <ele>32.3416</ele>
        <time>2012-03-06T13:23:02Z</time>
      </trkpt>
      <trkpt lat="59.9760119" lon="17.7395262">
        <ele>30.8995</ele>
        <time>2012-03-06T13:23:07Z</time>
      </trkpt>
      <trkpt lat="59.9759441" lon="17.739387">
        <ele>27.0543</ele>
        <time>2012-03-06T13:23:14Z</time>
      </trkpt>
      <trkpt lat="59.9758653" lon="17.7392225">
        <ele>22.7283</ele>
        <time>2012-03-06T13:23:22Z</time>
      </trkpt>
      <trkpt lat="59.9757862" lon="17.7390777">
        <ele>22.2476</ele>
        <time>2012-03-06T13:23:29Z</time>
      </trkpt>
      <trkpt lat="59.9756763" lon="17.7388858">
        <ele>21.767</ele>
        <time>2012-03-06T13:23:39Z</time>
      </trkpt>
      <trkpt lat="59.9755715" lon="17.7387037">
        <ele>23.209</ele>
        <time>2012-03-06T13:23:48Z</time>
      </trkpt>
      <trkpt lat="59.9754831" lon="17.73857">
        <ele>24.1703</ele>
        <time>2012-03-06T13:23:55Z</time>
      </trkpt>
      <trkpt lat="59.9753715" lon="17.738396">
        <ele>26.0929</ele>
        <time>2012-03-06T13:24:03Z</time>
      </trkpt>
      <trkpt lat="59.9752544" lon="17.7381868">
        <ele>27.0543</ele>
        <time>2012-03-06T13:24:13Z</time>
      </trkpt>
      <trkpt lat="59.9751639" lon="17.7380438">
        <ele>26.0929</ele>
        <time>2012-03-06T13:24:21Z</time>
      </trkpt>
      <trkpt lat="59.9750598" lon="17.7378826">
        <ele>24.651</ele>
        <time>2012-03-06T13:24:30Z</time>
      </trkpt>
      <trkpt lat="59.9749484" lon="17.7376764">
        <ele>25.6123</ele>
        <time>2012-03-06T13:24:39Z</time>
      </trkpt>
      <trkpt lat="59.974835" lon="17.7374496">
        <ele>26.0929</ele>
        <time>2012-03-06T13:24:49Z</time>
      </trkpt>
      <trkpt lat="59.9747302" lon="17.7372237">
        <ele>27.0543</ele>
        <time>2012-03-06T13:24:59Z</time>
      </trkpt>
      <trkpt lat="59.9746416" lon="17.7370076">
        <ele>27.5349</ele>
        <time>2012-03-06T13:25:08Z</time>
      </trkpt>
      <trkpt lat="59.9745519" lon="17.7367565">
        <ele>27.0543</ele>
        <time>2012-03-06T13:25:18Z</time>
      </trkpt>
      <trkpt lat="59.9744691" lon="17.7364613">
        <ele>26.0929</ele>
        <time>2012-03-06T13:25:29Z</time>
      </trkpt>
      <trkpt lat="59.974421" lon="17.7362285">
        <ele>24.651</ele>
        <time>2012-03-06T13:25:37Z</time>
      </trkpt>
      <trkpt lat="59.9743662" lon="17.7359404">
        <ele>23.209</ele>
        <time>2012-03-06T13:25:47Z</time>
      </trkpt>
      <trkpt lat="59.9743482" lon="17.7357903">
        <ele>22.7283</ele>
        <time>2012-03-06T13:25:52Z</time>
      </trkpt>
      <trkpt lat="59.9743349" lon="17.7356297">
        <ele>22.7283</ele>
        <time>2012-03-06T13:25:58Z</time>
      </trkpt>
      <trkpt lat="59.9743112" lon="17.7354225">
        <ele>22.7283</ele>
        <time>2012-03-06T13:26:05Z</time>
      </trkpt>
      <trkpt lat="59.9742845" lon="17.7351534">
        <ele>21.2864</ele>
        <time>2012-03-06T13:26:14Z</time>
      </trkpt>
      <trkpt lat="59.9742729" lon="17.7349669">
        <ele>21.2864</ele>
        <time>2012-03-06T13:26:20Z</time>
      </trkpt>
      <trkpt lat="59.9742595" lon="17.7347145">
        <ele>21.2864</ele>
        <time>2012-03-06T13:26:28Z</time>
      </trkpt>
      <trkpt lat="59.9742542" lon="17.7344654">
        <ele>20.8057</ele>
        <time>2012-03-06T13:26:36Z</time>
      </trkpt>
      <trkpt lat="59.9742662" lon="17.7342007">
        <ele>20.325</ele>
        <time>2012-03-06T13:26:45Z</time>
      </trkpt>
      <trkpt lat="59.9742652" lon="17.7339564">
        <ele>18.4023</ele>
        <time>2012-03-06T13:26:53Z</time>
      </trkpt>
      <trkpt lat="59.9742952" lon="17.7336874">
        <ele>17.4412</ele>
        <time>2012-03-06T13:27:02Z</time>
      </trkpt>
      <trkpt lat="59.9743108" lon="17.7334134">
        <ele>16.4797</ele>
        <time>2012-03-06T13:27:11Z</time>
      </trkpt>
      <trkpt lat="59.9743253" lon="17.7331274">
        <ele>15.5184</ele>
        <time>2012-03-06T13:27:20Z</time>
      </trkpt>
      <trkpt lat="59.9743303" lon="17.7328526">
        <ele>14.557</ele>
        <time>2012-03-06T13:27:29Z</time>
      </trkpt>
      <trkpt lat="59.974335" lon="17.7326025">
        <ele>14.0764</ele>
        <time>2012-03-06T13:27:37Z</time>
      </trkpt>
      <trkpt lat="59.9743247" lon="17.7323656">
        <ele>15.0377</ele>
        <time>2012-03-06T13:27:45Z</time>
      </trkpt>
      <trkpt lat="59.9743185" lon="17.7321325">
        <ele>16.4797</ele>
        <time>2012-03-06T13:27:53Z</time>
      </trkpt>
      <trkpt lat="59.9743154" lon="17.7318868">
        <ele>17.4412</ele>
        <time>2012-03-06T13:28:02Z</time>
      </trkpt>
      <trkpt lat="59.9743081" lon="17.7316876">
        <ele>18.4023</ele>
        <time>2012-03-06T13:28:08Z</time>
      </trkpt>
      <trkpt lat="59.9743083" lon="17.7313579">
        <ele>19.3638</ele>
        <time>2012-03-06T13:28:18Z</time>
      </trkpt>
      <trkpt lat="59.9743159" lon="17.7311532">
        <ele>19.8444</ele>
        <time>2012-03-06T13:28:24Z</time>
      </trkpt>
      <trkpt lat="59.9743273" lon="17.730903">
        <ele>20.8057</ele>
        <time>2012-03-06T13:28:32Z</time>
      </trkpt>
      <trkpt lat="59.9743418" lon="17.7306919">
        <ele>21.2864</ele>
        <time>2012-03-06T13:28:39Z</time>
      </trkpt>
      <trkpt lat="59.9743661" lon="17.7304958">
        <ele>20.8057</ele>
        <time>2012-03-06T13:28:46Z</time>
      </trkpt>
      <trkpt lat="59.9743808" lon="17.7302461">
        <ele>20.325</ele>
        <time>2012-03-06T13:28:54Z</time>
      </trkpt>
      <trkpt lat="59.9744107" lon="17.7300004">
        <ele>20.8057</ele>
        <time>2012-03-06T13:29:02Z</time>
      </trkpt>
      <trkpt lat="59.9744237" lon="17.7297986">
        <ele>19.3638</ele>
        <time>2012-03-06T13:29:08Z</time>
      </trkpt>
      <trkpt lat="59.9744283" lon="17.7296085">
        <ele>16.4797</ele>
        <time>2012-03-06T13:29:14Z</time>
      </trkpt>
      <trkpt lat="59.9744397" lon="17.7294237">
        <ele>16.9604</ele>
        <time>2012-03-06T13:29:20Z</time>
      </trkpt>
      <trkpt lat="59.97443" lon="17.7291635">
        <ele>17.4412</ele>
        <time>2012-03-06T13:29:28Z</time>
      </trkpt>
      <trkpt lat="59.9744269" lon="17.7288846">
        <ele>16.9604</ele>
        <time>2012-03-06T13:29:37Z</time>
      </trkpt>
      <trkpt lat="59.9744173" lon="17.7286019">
        <ele>17.4412</ele>
        <time>2012-03-06T13:29:46Z</time>
      </trkpt>
      <trkpt lat="59.9744051" lon="17.7283487">
        <ele>17.4412</ele>
        <time>2012-03-06T13:29:54Z</time>
      </trkpt>
      <trkpt lat="59.9744036" lon="17.7280943">
        <ele>16.9604</ele>
        <time>2012-03-06T13:30:02Z</time>
      </trkpt>
      <trkpt lat="59.9744004" lon="17.7278466">
        <ele>17.4412</ele>
        <time>2012-03-06T13:30:10Z</time>
      </trkpt>
      <trkpt lat="59.9744034" lon="17.7276385">
        <ele>17.9218</ele>
        <time>2012-03-06T13:30:17Z</time>
      </trkpt>
      <trkpt lat="59.9744064" lon="17.7275271">
        <ele>17.4412</ele>
        <time>2012-03-06T13:30:21Z</time>
      </trkpt>
      <trkpt lat="59.9743966" lon="17.7272004">
        <ele>16.4797</ele>
        <time>2012-03-06T13:30:32Z</time>
      </trkpt>
      <trkpt lat="59.9743943" lon="17.7270224">
        <ele>16.4797</ele>
        <time>2012-03-06T13:30:38Z</time>
      </trkpt>
      <trkpt lat="59.9743916" lon="17.7267879">
        <ele>15.999</ele>
        <time>2012-03-06T13:30:46Z</time>
      </trkpt>
      <trkpt lat="59.9743914" lon="17.7265948">
        <ele>15.0377</ele>
        <time>2012-03-06T13:30:53Z</time>
      </trkpt>
      <trkpt lat="59.9743865" lon="17.7264303">
        <ele>15.0377</ele>
        <time>2012-03-06T13:30:58Z</time>
      </trkpt>
      <trkpt lat="59.97439" lon="17.7263026">
        <ele>15.0377</ele>
        <time>2012-03-06T13:31:02Z</time>
      </trkpt>
      <trkpt lat="59.9743684" lon="17.7260798">
        <ele>16.4797</ele>
        <time>2012-03-06T13:31:09Z</time>
      </trkpt>
      <trkpt lat="59.9743624" lon="17.7259171">
        <ele>15.0377</ele>
        <time>2012-03-06T13:31:14Z</time>
      </trkpt>
      <trkpt lat="59.9743299" lon="17.7256483">
        <ele>16.9604</ele>
        <time>2012-03-06T13:31:22Z</time>
      </trkpt>
      <trkpt lat="59.974299" lon="17.7253669">
        <ele>17.9218</ele>
        <time>2012-03-06T13:31:32Z</time>
      </trkpt>
      <trkpt lat="59.9742723" lon="17.725193">
        <ele>20.325</ele>
        <time>2012-03-06T13:31:37Z</time>
      </trkpt>
      <trkpt lat="59.9742595" lon="17.7251568">
        <ele>19.3638</ele>
        <time>2012-03-06T13:31:38Z</time>
      </trkpt>
      <trkpt lat="59.9742559" lon="17.7250948">
        <ele>19.3638</ele>
        <time>2012-03-06T13:31:40Z</time>
      </trkpt>
      <trkpt lat="59.9743087" lon="17.7252085">
        <ele>19.8444</ele>
        <time>2012-03-06T13:31:44Z</time>
      </trkpt>
      <trkpt lat="59.9743445" lon="17.7254741">
        <ele>20.8057</ele>
        <time>2012-03-06T13:31:52Z</time>
      </trkpt>
      <trkpt lat="59.9743553" lon="17.7255981">
        <ele>21.767</ele>
        <time>2012-03-06T13:31:56Z</time>
      </trkpt>
      <trkpt lat="59.9743817" lon="17.7258077">
        <ele>22.2476</ele>
        <time>2012-03-06T13:32:03Z</time>
      </trkpt>
      <trkpt lat="59.9743934" lon="17.726028">
        <ele>23.209</ele>
        <time>2012-03-06T13:32:10Z</time>
      </trkpt>
      <trkpt lat="59.9744225" lon="17.7262357">
        <ele>23.6896</ele>
        <time>2012-03-06T13:32:17Z</time>
      </trkpt>
      <trkpt lat="59.9744256" lon="17.7264456">
        <ele>24.1703</ele>
        <time>2012-03-06T13:32:24Z</time>
      </trkpt>
      <trkpt lat="59.9744408" lon="17.726747">
        <ele>25.1317</ele>
        <time>2012-03-06T13:32:34Z</time>
      </trkpt>
      <trkpt lat="59.9744419" lon="17.7267821">
        <ele>25.6123</ele>
        <time>2012-03-06T13:32:35Z</time>
      </trkpt>
      <trkpt lat="59.9744359" lon="17.7268848">
        <ele>26.0929</ele>
        <time>2012-03-06T13:32:38Z</time>
      </trkpt>
      <trkpt lat="59.9744237" lon="17.7270688">
        <ele>24.651</ele>
        <time>2012-03-06T13:32:44Z</time>
      </trkpt>
      <trkpt lat="59.9744359" lon="17.7272521">
        <ele>27.0543</ele>
        <time>2012-03-06T13:32:50Z</time>
      </trkpt>
      <trkpt lat="59.9744282" lon="17.7274176">
        <ele>27.5349</ele>
        <time>2012-03-06T13:32:55Z</time>
      </trkpt>
      <trkpt lat="59.9744345" lon="17.7274519">
        <ele>27.5349</ele>
        <time>2012-03-06T13:32:56Z</time>
      </trkpt>
      <trkpt lat="59.9744421" lon="17.7275287">
        <ele>27.0543</ele>
        <time>2012-03-06T13:32:58Z</time>
      </trkpt>
      <trkpt lat="59.9744354" lon="17.7277316">
        <ele>27.0543</ele>
        <time>2012-03-06T13:33:05Z</time>
      </trkpt>
      <trkpt lat="59.97445" lon="17.7278819">
        <ele>26.5736</ele>
        <time>2012-03-06T13:33:09Z</time>
      </trkpt>
      <trkpt lat="59.9744574" lon="17.7281052">
        <ele>26.0929</ele>
        <time>2012-03-06T13:33:16Z</time>
      </trkpt>
      <trkpt lat="59.9744652" lon="17.7283293">
        <ele>27.5349</ele>
        <time>2012-03-06T13:33:23Z</time>
      </trkpt>
      <trkpt lat="59.9744655" lon="17.7285487">
        <ele>27.0543</ele>
        <time>2012-03-06T13:33:30Z</time>
      </trkpt>
      <trkpt lat="59.9744799" lon="17.7288108">
        <ele>28.4962</ele>
        <time>2012-03-06T13:33:38Z</time>
      </trkpt>
      <trkpt lat="59.9744807" lon="17.7290019">
        <ele>28.0155</ele>
        <time>2012-03-06T13:33:44Z</time>
      </trkpt>
      <trkpt lat="59.9744769" lon="17.7291941">
        <ele>26.5736</ele>
        <time>2012-03-06T13:33:50Z</time>
      </trkpt>
      <trkpt lat="59.9744849" lon="17.7294096">
        <ele>26.5736</ele>
        <time>2012-03-06T13:33:57Z</time>
      </trkpt>
      <trkpt lat="59.9744766" lon="17.729595">
        <ele>25.1317</ele>
        <time>2012-03-06T13:34:03Z</time>
      </trkpt>
      <trkpt lat="59.9744665" lon="17.7298586">
        <ele>26.0929</ele>
        <time>2012-03-06T13:34:11Z</time>
      </trkpt>
      <trkpt lat="59.9744427" lon="17.7300569">
        <ele>26.0929</ele>
        <time>2012-03-06T13:34:17Z</time>
      </trkpt>
      <trkpt lat="59.9744216" lon="17.7302849">
        <ele>27.0543</ele>
        <time>2012-03-06T13:34:24Z</time>
      </trkpt>
      <trkpt lat="59.97441" lon="17.7304533">
        <ele>28.9769</ele>
        <time>2012-03-06T13:34:29Z</time>
      </trkpt>
      <trkpt lat="59.9743858" lon="17.7306387">
        <ele>30.4188</ele>
        <time>2012-03-06T13:34:35Z</time>
      </trkpt>
      <trkpt lat="59.9743822" lon="17.7308839">
        <ele>30.8995</ele>
        <time>2012-03-06T13:34:43Z</time>
      </trkpt>
      <trkpt lat="59.9743728" lon="17.7310594">
        <ele>30.8995</ele>
        <time>2012-03-06T13:34:49Z</time>
      </trkpt>
      <trkpt lat="59.9743632" lon="17.7313084">
        <ele>30.4188</ele>
        <time>2012-03-06T13:34:57Z</time>
      </trkpt>
      <trkpt lat="59.9743532" lon="17.7314878">
        <ele>28.4962</ele>
        <time>2012-03-06T13:35:03Z</time>
      </trkpt>
      <trkpt lat="59.974347" lon="17.731667">
        <ele>27.5349</ele>
        <time>2012-03-06T13:35:09Z</time>
      </trkpt>
      <trkpt lat="59.9743642" lon="17.731823">
        <ele>27.0543</ele>
        <time>2012-03-06T13:35:15Z</time>
      </trkpt>
      <trkpt lat="59.9743729" lon="17.7320685">
        <ele>27.5349</ele>
        <time>2012-03-06T13:35:23Z</time>
      </trkpt>
      <trkpt lat="59.9743849" lon="17.732242">
        <ele>27.5349</ele>
        <time>2012-03-06T13:35:29Z</time>
      </trkpt>
      <trkpt lat="59.9743828" lon="17.732453">
        <ele>26.5736</ele>
        <time>2012-03-06T13:35:36Z</time>
      </trkpt>
      <trkpt lat="59.9743929" lon="17.7327362">
        <ele>25.6123</ele>
        <time>2012-03-06T13:35:45Z</time>
      </trkpt>
      <trkpt lat="59.9743857" lon="17.733037">
        <ele>27.0543</ele>
        <time>2012-03-06T13:35:55Z</time>
      </trkpt>
      <trkpt lat="59.9743683" lon="17.7332553">
        <ele>27.5349</ele>
        <time>2012-03-06T13:36:02Z</time>
      </trkpt>
      <trkpt lat="59.9743481" lon="17.7334982">
        <ele>26.5736</ele>
        <time>2012-03-06T13:36:10Z</time>
      </trkpt>
      <trkpt lat="59.9743318" lon="17.7337081">
        <ele>25.6123</ele>
        <time>2012-03-06T13:36:17Z</time>
      </trkpt>
      <trkpt lat="59.9743031" lon="17.7338917">
        <ele>25.1317</ele>
        <time>2012-03-06T13:36:23Z</time>
      </trkpt>
      <trkpt lat="59.9743043" lon="17.7341073">
        <ele>26.0929</ele>
        <time>2012-03-06T13:36:30Z</time>
      </trkpt>
      <trkpt lat="59.9743083" lon="17.7342819">
        <ele>26.5736</ele>
        <time>2012-03-06T13:36:36Z</time>
      </trkpt>
      <trkpt lat="59.974314" lon="17.7345226">
        <ele>28.0155</ele>
        <time>2012-03-06T13:36:44Z</time>
      </trkpt>
      <trkpt lat="59.9743263" lon="17.734718">
        <ele>28.4962</ele>
        <time>2012-03-06T13:36:51Z</time>
      </trkpt>
      <trkpt lat="59.9743541" lon="17.7349755">
        <ele>28.9769</ele>
        <time>2012-03-06T13:37:00Z</time>
      </trkpt>
      <trkpt lat="59.9743675" lon="17.7352185">
        <ele>27.5349</ele>
        <time>2012-03-06T13:37:08Z</time>
      </trkpt>
      <trkpt lat="59.9743943" lon="17.7354217">
        <ele>25.6123</ele>
        <time>2012-03-06T13:37:15Z</time>
      </trkpt>
      <trkpt lat="59.9744325" lon="17.7356583">
        <ele>23.6896</ele>
        <time>2012-03-06T13:37:24Z</time>
      </trkpt>
      <trkpt lat="59.9744805" lon="17.7358522">
        <ele>22.7283</ele>
        <time>2012-03-06T13:37:31Z</time>
      </trkpt>
      <trkpt lat="59.9745356" lon="17.7360239">
        <ele>23.6896</ele>
        <time>2012-03-06T13:37:37Z</time>
      </trkpt>
      <trkpt lat="59.9745864" lon="17.736184">
        <ele>24.651</ele>
        <time>2012-03-06T13:37:43Z</time>
      </trkpt>
      <trkpt lat="59.9746158" lon="17.7363416">
        <ele>26.0929</ele>
        <time>2012-03-06T13:37:49Z</time>
      </trkpt>
      <trkpt lat="59.9746794" lon="17.7365502">
        <ele>28.4962</ele>
        <time>2012-03-06T13:37:57Z</time>
      </trkpt>
      <trkpt lat="59.9747272" lon="17.7367673">
        <ele>28.4962</ele>
        <time>2012-03-06T13:38:05Z</time>
      </trkpt>
      <trkpt lat="59.9747951" lon="17.7370003">
        <ele>27.0543</ele>
        <time>2012-03-06T13:38:14Z</time>
      </trkpt>
      <trkpt lat="59.9748463" lon="17.7371476">
        <ele>27.0543</ele>
        <time>2012-03-06T13:38:20Z</time>
      </trkpt>
      <trkpt lat="59.9749157" lon="17.7373138">
        <ele>28.0155</ele>
        <time>2012-03-06T13:38:27Z</time>
      </trkpt>
      <trkpt lat="59.9749784" lon="17.7374652">
        <ele>28.9769</ele>
        <time>2012-03-06T13:38:33Z</time>
      </trkpt>
      <trkpt lat="59.9750518" lon="17.7375497">
        <ele>29.4575</ele>
        <time>2012-03-06T13:38:38Z</time>
      </trkpt>
      <trkpt lat="59.9751193" lon="17.7377051">
        <ele>29.4575</ele>
        <time>2012-03-06T13:38:45Z</time>
      </trkpt>
      <trkpt lat="59.9751997" lon="17.7378095">
        <ele>30.8995</ele>
        <time>2012-03-06T13:38:51Z</time>
      </trkpt>
      <trkpt lat="59.9752623" lon="17.7379014">
        <ele>31.3801</ele>
        <time>2012-03-06T13:38:56Z</time>
      </trkpt>
      <trkpt lat="59.9753272" lon="17.7379884">
        <ele>31.3801</ele>
        <time>2012-03-06T13:39:01Z</time>
      </trkpt>
      <trkpt lat="59.9754311" lon="17.7381119">
        <ele>32.3416</ele>
        <time>2012-03-06T13:39:08Z</time>
      </trkpt>
      <trkpt lat="59.9755149" lon="17.7382847">
        <ele>32.3416</ele>
        <time>2012-03-06T13:39:16Z</time>
      </trkpt>
      <trkpt lat="59.9756027" lon="17.7384576">
        <ele>32.3416</ele>
        <time>2012-03-06T13:39:24Z</time>
      </trkpt>
      <trkpt lat="59.9756638" lon="17.73857">
        <ele>32.8223</ele>
        <time>2012-03-06T13:39:29Z</time>
      </trkpt>
      <trkpt lat="59.9756757" lon="17.7385867">
        <ele>32.8223</ele>
        <time>2012-03-06T13:39:30Z</time>
      </trkpt>
      <trkpt lat="59.975725" lon="17.7386498">
        <ele>35.2255</ele>
        <time>2012-03-06T13:39:35Z</time>
      </trkpt>
      <trkpt lat="59.9758176" lon="17.7387998">
        <ele>35.2255</ele>
        <time>2012-03-06T13:39:43Z</time>
      </trkpt>
      <trkpt lat="59.9758563" lon="17.7389143">
        <ele>33.3029</ele>
        <time>2012-03-06T13:39:48Z</time>
      </trkpt>
      <trkpt lat="59.9759535" lon="17.7390694">
        <ele>31.8607</ele>
        <time>2012-03-06T13:39:55Z</time>
      </trkpt>
      <trkpt lat="59.9760531" lon="17.739228">
        <ele>30.4188</ele>
        <time>2012-03-06T13:40:02Z</time>
      </trkpt>
      <trkpt lat="59.976119" lon="17.7393745">
        <ele>29.9381</ele>
        <time>2012-03-06T13:40:09Z</time>
      </trkpt>
      <trkpt lat="59.976178" lon="17.7394934">
        <ele>30.4188</ele>
        <time>2012-03-06T13:40:15Z</time>
      </trkpt>
      <trkpt lat="59.9762199" lon="17.7395922">
        <ele>29.9381</ele>
        <time>2012-03-06T13:40:20Z</time>
      </trkpt>
      <trkpt lat="59.9763015" lon="17.739708">
        <ele>28.4962</ele>
        <time>2012-03-06T13:40:27Z</time>
      </trkpt>
      <trkpt lat="59.9763579" lon="17.7397478">
        <ele>27.5349</ele>
        <time>2012-03-06T13:40:32Z</time>
      </trkpt>
      <trkpt lat="59.9764138" lon="17.7396124">
        <ele>26.5736</ele>
        <time>2012-03-06T13:40:39Z</time>
      </trkpt>
      <trkpt lat="59.9764626" lon="17.7394832">
        <ele>25.6123</ele>
        <time>2012-03-06T13:40:46Z</time>
      </trkpt>
      <trkpt lat="59.9764999" lon="17.7394341">
        <ele>25.1317</ele>
        <time>2012-03-06T13:40:49Z</time>
      </trkpt>
      <trkpt lat="59.9765653" lon="17.739409">
        <ele>24.651</ele>
        <time>2012-03-06T13:40:53Z</time>
      </trkpt>
      <trkpt lat="59.9766939" lon="17.7393573">
        <ele>23.6896</ele>
        <time>2012-03-06T13:41:01Z</time>
      </trkpt>
      <trkpt lat="59.9767833" lon="17.7393326">
        <ele>23.6896</ele>
        <time>2012-03-06T13:41:07Z</time>
      </trkpt>
      <trkpt lat="59.9768842" lon="17.7392969">
        <ele>23.209</ele>
        <time>2012-03-06T13:41:13Z</time>
      </trkpt>
      <trkpt lat="59.9769956" lon="17.7392647">
        <ele>23.6896</ele>
        <time>2012-03-06T13:41:20Z</time>
      </trkpt>
      <trkpt lat="59.9771075" lon="17.7391925">
        <ele>25.1317</ele>
        <time>2012-03-06T13:41:27Z</time>
      </trkpt>
      <trkpt lat="59.9772" lon="17.7391511">
        <ele>23.209</ele>
        <time>2012-03-06T13:41:34Z</time>
      </trkpt>
      <trkpt lat="59.9772962" lon="17.7390889">
        <ele>24.1703</ele>
        <time>2012-03-06T13:41:41Z</time>
      </trkpt>
      <trkpt lat="59.9773811" lon="17.7390394">
        <ele>24.651</ele>
        <time>2012-03-06T13:41:47Z</time>
      </trkpt>
      <trkpt lat="59.9774868" lon="17.7389912">
        <ele>25.6123</ele>
        <time>2012-03-06T13:41:54Z</time>
      </trkpt>
      <trkpt lat="59.9775689" lon="17.7389644">
        <ele>26.5736</ele>
        <time>2012-03-06T13:42:00Z</time>
      </trkpt>
      <trkpt lat="59.9776878" lon="17.7389661">
        <ele>28.4962</ele>
        <time>2012-03-06T13:42:08Z</time>
      </trkpt>
      <trkpt lat="59.977699" lon="17.7389668">
        <ele>28.0155</ele>
        <time>2012-03-06T13:42:09Z</time>
      </trkpt>
      <trkpt lat="59.977785" lon="17.7389902">
        <ele>29.4575</ele>
        <time>2012-03-06T13:42:16Z</time>
      </trkpt>
      <trkpt lat="59.9778648" lon="17.7390223">
        <ele>29.9381</ele>
        <time>2012-03-06T13:42:22Z</time>
      </trkpt>
      <trkpt lat="59.9779415" lon="17.7390902">
        <ele>28.9769</ele>
        <time>2012-03-06T13:42:29Z</time>
      </trkpt>
      <trkpt lat="59.9780112" lon="17.7391493">
        <ele>28.9769</ele>
        <time>2012-03-06T13:42:34Z</time>
      </trkpt>
      <trkpt lat="59.9781171" lon="17.7391861">
        <ele>32.3416</ele>
        <time>2012-03-06T13:42:40Z</time>
      </trkpt>
      <trkpt lat="59.9782252" lon="17.7392006">
        <ele>31.3801</ele>
        <time>2012-03-06T13:42:47Z</time>
      </trkpt>
      <trkpt lat="59.9783334" lon="17.739214">
        <ele>31.8607</ele>
        <time>2012-03-06T13:42:54Z</time>
      </trkpt>
      <trkpt lat="59.9783764" lon="17.7392138">
        <ele>31.8607</ele>
        <time>2012-03-06T13:42:57Z</time>
      </trkpt>
      <trkpt lat="59.9784015" lon="17.7392305">
        <ele>31.3801</ele>
        <time>2012-03-06T13:42:59Z</time>
      </trkpt>
      <trkpt lat="59.9784548" lon="17.7392351">
        <ele>29.9381</ele>
        <time>2012-03-06T13:43:03Z</time>
      </trkpt>
      <trkpt lat="59.9785192" lon="17.7392289">
        <ele>28.0155</ele>
        <time>2012-03-06T13:43:08Z</time>
      </trkpt>
      <trkpt lat="59.9786447" lon="17.7392658">
        <ele>28.9769</ele>
        <time>2012-03-06T13:43:15Z</time>
      </trkpt>
      <trkpt lat="59.978738" lon="17.7392621">
        <ele>26.5736</ele>
        <time>2012-03-06T13:43:22Z</time>
      </trkpt>
      <trkpt lat="59.9787692" lon="17.7392666">
        <ele>27.0543</ele>
        <time>2012-03-06T13:43:24Z</time>
      </trkpt>
      <trkpt lat="59.9788832" lon="17.7392347">
        <ele>28.0155</ele>
        <time>2012-03-06T13:43:31Z</time>
      </trkpt>
      <trkpt lat="59.9790032" lon="17.7391926">
        <ele>30.4188</ele>
        <time>2012-03-06T13:43:38Z</time>
      </trkpt>
      <trkpt lat="59.9790994" lon="17.7391308">
        <ele>30.8995</ele>
        <time>2012-03-06T13:43:44Z</time>
      </trkpt>
      <trkpt lat="59.9792287" lon="17.7390974">
        <ele>33.3029</ele>
        <time>2012-03-06T13:43:51Z</time>
      </trkpt>
      <trkpt lat="59.9793027" lon="17.7390902">
        <ele>31.8607</ele>
        <time>2012-03-06T13:43:56Z</time>
      </trkpt>
      <trkpt lat="59.9792889" lon="17.7391223">
        <ele>30.8995</ele>
        <time>2012-03-06T13:44:01Z</time>
      </trkpt>
      <trkpt lat="59.9792339" lon="17.7391547">
        <ele>30.8995</ele>
        <time>2012-03-06T13:44:05Z</time>
      </trkpt>
      <trkpt lat="59.9791289" lon="17.7392127">
        <ele>31.3801</ele>
        <time>2012-03-06T13:44:11Z</time>
      </trkpt>
      <trkpt lat="59.9790437" lon="17.7392697">
        <ele>30.4188</ele>
        <time>2012-03-06T13:44:17Z</time>
      </trkpt>
      <trkpt lat="59.9789765" lon="17.7393113">
        <ele>30.4188</ele>
        <time>2012-03-06T13:44:21Z</time>
      </trkpt>
      <trkpt lat="59.9789185" lon="17.7393309">
        <ele>31.3801</ele>
        <time>2012-03-06T13:44:26Z</time>
      </trkpt>
      <trkpt lat="59.978896" lon="17.7393895">
        <ele>33.3029</ele>
        <time>2012-03-06T13:44:30Z</time>
      </trkpt>
      <trkpt lat="59.9788727" lon="17.7395672">
        <ele>33.3029</ele>
        <time>2012-03-06T13:44:38Z</time>
      </trkpt>
      <trkpt lat="59.9788253" lon="17.7396877">
        <ele>34.2642</ele>
        <time>2012-03-06T13:44:44Z</time>
      </trkpt>
      <trkpt lat="59.9788134" lon="17.7397212">
        <ele>33.7834</ele>
        <time>2012-03-06T13:44:46Z</time>
      </trkpt>
      <trkpt lat="59.9788238" lon="17.7398361">
        <ele>31.8607</ele>
        <time>2012-03-06T13:44:51Z</time>
      </trkpt>
      <trkpt lat="59.9788496" lon="17.7399214">
        <ele>31.8607</ele>
        <time>2012-03-06T13:44:55Z</time>
      </trkpt>
    </trkseg>
  </trk>
</gpx>